sensor_id;sensor_type;location;lat;lon;timestamp;pressure;altitude;pressure_sealevel;temperature;humidity
80566;BME280;69915;54.862;10.730;2024-01-27T00:01:44;102222.25;;;5.00;94.61
80566;BME280;69915;54.862;10.730;2024-01-27T00:04:10;102228.25;;;5.02;94.64
80566;BME280;69915;54.862;10.730;2024-01-27T00:06:36;102243.06;;;5.06;95.18
80566;BME280;69915;54.862;10.730;2024-01-27T00:09:01;102239.09;;;5.02;94.90
80566;BME280;69915;54.862;10.730;2024-01-27T00:11:27;102243.50;;;5.03;95.70
80566;BME280;69915;54.862;10.730;2024-01-27T00:13:52;102267.28;;;5.01;95.42
80566;BME280;69915;54.862;10.730;2024-01-27T00:16:18;102273.97;;;4.98;95.22
80566;BME280;69915;54.862;10.730;2024-01-27T00:18:44;102272.72;;;5.01;95.87
80566;BME280;69915;54.862;10.730;2024-01-27T00:21:09;102259.78;;;4.96;95.61
80566;BME280;69915;54.862;10.730;2024-01-27T00:23:35;102263.50;;;5.02;95.32
80566;BME280;69915;54.862;10.730;2024-01-27T00:26:01;102272.72;;;5.01;96.01
80566;BME280;69915;54.862;10.730;2024-01-27T00:28:26;102276.00;;;5.03;95.90
80566;BME280;69915;54.862;10.730;2024-01-27T00:30:52;102265.88;;;4.91;96.26
80566;BME280;69915;54.862;10.730;2024-01-27T00:33:18;102267.53;;;4.92;96.57
80566;BME280;69915;54.862;10.730;2024-01-27T00:35:43;102266.09;;;4.90;96.84
80566;BME280;69915;54.862;10.730;2024-01-27T00:38:09;102277.75;;;4.90;97.00
80566;BME280;69915;54.862;10.730;2024-01-27T00:40:35;102274.06;;;4.85;97.39
80566;BME280;69915;54.862;10.730;2024-01-27T00:43:02;102275.72;;;4.86;97.11
80566;BME280;69915;54.862;10.730;2024-01-27T00:45:28;102275.50;;;4.87;97.85
80566;BME280;69915;54.862;10.730;2024-01-27T00:47:55;102298.53;;;5.03;98.23
80566;BME280;69915;54.862;10.730;2024-01-27T00:50:21;102281.59;;;5.08;98.27
80566;BME280;69915;54.862;10.730;2024-01-27T00:52:47;102289.66;;;5.21;97.80
80566;BME280;69915;54.862;10.730;2024-01-27T00:55:12;102278.16;;;5.25;97.50
80566;BME280;69915;54.862;10.730;2024-01-27T00:57:38;102274.19;;;5.28;97.62
80566;BME280;69915;54.862;10.730;2024-01-27T01:00:08;102280.03;;;5.25;97.73
80566;BME280;69915;54.862;10.730;2024-01-27T01:02:34;102295.91;;;5.21;96.77
80566;BME280;69915;54.862;10.730;2024-01-27T01:05:01;102301.59;;;5.13;97.07
80566;BME280;69915;54.862;10.730;2024-01-27T01:07:29;102313.31;;;5.07;97.58
80566;BME280;69915;54.862;10.730;2024-01-27T01:09:55;102302.69;;;5.06;97.70
80566;BME280;69915;54.862;10.730;2024-01-27T01:12:20;102296.00;;;5.08;97.81
80566;BME280;69915;54.862;10.730;2024-01-27T01:14:46;102304.53;;;5.12;97.63
80566;BME280;69915;54.862;10.730;2024-01-27T01:17:12;102311.81;;;5.11;97.68
80566;BME280;69915;54.862;10.730;2024-01-27T01:19:38;102314.09;;;5.14;97.83
80566;BME280;69915;54.862;10.730;2024-01-27T01:22:05;102329.97;;;5.11;97.96
80566;BME280;69915;54.862;10.730;2024-01-27T01:24:30;102323.78;;;5.04;98.54
80566;BME280;69915;54.862;10.730;2024-01-27T01:26:56;102325.66;;;5.03;98.65
80566;BME280;69915;54.862;10.730;2024-01-27T01:29:21;102343.34;;;5.06;98.17
80566;BME280;69915;54.862;10.730;2024-01-27T01:31:47;102351.03;;;5.09;98.92
80566;BME280;69915;54.862;10.730;2024-01-27T01:34:13;102350.84;;;5.10;98.90
80566;BME280;69915;54.862;10.730;2024-01-27T01:36:38;102367.28;;;5.15;99.18
80566;BME280;69915;54.862;10.730;2024-01-27T01:39:04;102364.53;;;5.22;98.91
80566;BME280;69915;54.862;10.730;2024-01-27T01:41:30;102366.19;;;5.23;98.57
80566;BME280;69915;54.862;10.730;2024-01-27T01:43:55;102364.66;;;5.33;98.71
80566;BME280;69915;54.862;10.730;2024-01-27T01:46:22;102361.78;;;5.28;98.78
80566;BME280;69915;54.862;10.730;2024-01-27T01:48:49;102362.00;;;5.27;98.54
80566;BME280;69915;54.862;10.730;2024-01-27T01:51:16;102374.28;;;5.29;98.42
80566;BME280;69915;54.862;10.730;2024-01-27T01:53:42;102377.22;;;5.28;98.26
80566;BME280;69915;54.862;10.730;2024-01-27T01:56:08;102371.00;;;5.21;98.72
80566;BME280;69915;54.862;10.730;2024-01-27T01:58:34;102368.13;;;5.16;98.80
80566;BME280;69915;54.862;10.730;2024-01-27T02:01:00;102368.97;;;5.10;98.59
80566;BME280;69915;54.862;10.730;2024-01-27T02:03:26;102374.41;;;5.10;99.13
80566;BME280;69915;54.862;10.730;2024-01-27T02:05:52;102372.28;;;5.12;98.88
80566;BME280;69915;54.862;10.730;2024-01-27T02:08:17;102367.97;;;5.04;99.32
80566;BME280;69915;54.862;10.730;2024-01-27T02:10:43;102373.41;;;5.04;99.05
80566;BME280;69915;54.862;10.730;2024-01-27T02:15:43;102384.03;;;4.99;99.60
80566;BME280;69915;54.862;10.730;2024-01-27T02:18:08;102373.84;;;4.94;99.47
80566;BME280;69915;54.862;10.730;2024-01-27T02:20:33;102370.91;;;4.96;99.54
80566;BME280;69915;54.862;10.730;2024-01-27T02:22:59;102388.63;;;4.99;99.60
80566;BME280;69915;54.862;10.730;2024-01-27T02:25:28;102384.03;;;4.99;99.56
80566;BME280;69915;54.862;10.730;2024-01-27T02:27:54;102392.38;;;5.04;99.81
80566;BME280;69915;54.862;10.730;2024-01-27T02:30:19;102384.84;;;5.06;99.65
80566;BME280;69915;54.862;10.730;2024-01-27T02:32:45;102386.72;;;5.06;99.65
80566;BME280;69915;54.862;10.730;2024-01-27T02:35:10;102395.88;;;5.05;99.31
80566;BME280;69915;54.862;10.730;2024-01-27T02:37:36;102408.00;;;5.02;99.24
80566;BME280;69915;54.862;10.730;2024-01-27T02:40:01;102402.38;;;5.04;99.24
80566;BME280;69915;54.862;10.730;2024-01-27T02:42:27;102389.25;;;5.01;99.42
80566;BME280;69915;54.862;10.730;2024-01-27T02:44:53;102409.06;;;5.01;99.58
80566;BME280;69915;54.862;10.730;2024-01-27T02:47:18;102419.91;;;5.01;99.70
80566;BME280;69915;54.862;10.730;2024-01-27T02:49:44;102418.66;;;4.97;99.84
80566;BME280;69915;54.862;10.730;2024-01-27T02:52:09;102417.63;;;4.98;100.00
80566;BME280;69915;54.862;10.730;2024-01-27T02:54:35;102429.28;;;4.99;100.00
80566;BME280;69915;54.862;10.730;2024-01-27T02:57:00;102429.06;;;5.00;100.00
80566;BME280;69915;54.862;10.730;2024-01-27T02:59:26;102425.75;;;4.98;100.00
80566;BME280;69915;54.862;10.730;2024-01-27T03:01:51;102424.50;;;5.01;100.00
80566;BME280;69915;54.862;10.730;2024-01-27T03:04:17;102433.06;;;4.98;100.00
80566;BME280;69915;54.862;10.730;2024-01-27T03:06:42;102409.50;;;4.98;100.00
80566;BME280;69915;54.862;10.730;2024-01-27T03:09:08;102422.38;;;5.03;100.00
80566;BME280;69915;54.862;10.730;2024-01-27T03:11:35;102409.06;;;5.01;100.00
80566;BME280;69915;54.862;10.730;2024-01-27T03:14:01;102426.13;;;5.08;100.00
80566;BME280;69915;54.862;10.730;2024-01-27T03:16:26;102430.25;;;5.17;99.98
80566;BME280;69915;54.862;10.730;2024-01-27T03:18:52;102427.75;;;5.16;100.00
80566;BME280;69915;54.862;10.730;2024-01-27T03:21:17;102446.50;;;5.17;99.70
80566;BME280;69915;54.862;10.730;2024-01-27T03:23:43;102452.75;;;5.24;100.00
80566;BME280;69915;54.862;10.730;2024-01-27T03:26:08;102442.91;;;5.30;99.81
80566;BME280;69915;54.862;10.730;2024-01-27T03:28:34;102447.66;;;5.41;100.00
80566;BME280;69915;54.862;10.730;2024-01-27T03:31:00;102452.81;;;5.49;99.51
80566;BME280;69915;54.862;10.730;2024-01-27T03:33:26;102451.28;;;5.60;99.66
80566;BME280;69915;54.862;10.730;2024-01-27T03:35:51;102455.03;;;5.65;98.72
80566;BME280;69915;54.862;10.730;2024-01-27T03:38:17;102437.69;;;5.66;98.96
80566;BME280;69915;54.862;10.730;2024-01-27T03:40:42;102442.47;;;5.71;98.39
80566;BME280;69915;54.862;10.730;2024-01-27T03:43:08;102440.75;;;5.76;97.96
80566;BME280;69915;54.862;10.730;2024-01-27T03:45:33;102441.59;;;5.77;98.09
80566;BME280;69915;54.862;10.730;2024-01-27T03:47:59;102439.72;;;5.77;97.32
80566;BME280;69915;54.862;10.730;2024-01-27T03:50:24;102452.41;;;5.83;96.97
80566;BME280;69915;54.862;10.730;2024-01-27T03:52:50;102453.69;;;5.81;96.53
80566;BME280;69915;54.862;10.730;2024-01-27T03:55:15;102448.88;;;5.76;97.52
80566;BME280;69915;54.862;10.730;2024-01-27T03:57:41;102464.13;;;5.77;96.90
80566;BME280;69915;54.862;10.730;2024-01-27T04:00:06;102457.63;;;5.78;96.48
80566;BME280;69915;54.862;10.730;2024-01-27T04:02:32;102461.38;;;5.84;96.35
80566;BME280;69915;54.862;10.730;2024-01-27T04:04:59;102474.91;;;5.90;96.45
80566;BME280;69915;54.862;10.730;2024-01-27T04:07:24;102471.59;;;5.88;95.84
80566;BME280;69915;54.862;10.730;2024-01-27T04:09:49;102486.63;;;5.84;96.12
80566;BME280;69915;54.862;10.730;2024-01-27T04:12:15;102480.34;;;5.90;96.20
80566;BME280;69915;54.862;10.730;2024-01-27T04:14:40;102500.41;;;5.89;96.52
80566;BME280;69915;54.862;10.730;2024-01-27T04:17:06;102484.53;;;5.93;96.55
80566;BME280;69915;54.862;10.730;2024-01-27T04:19:31;102508.13;;;5.92;96.39
80566;BME280;69915;54.862;10.730;2024-01-27T04:21:57;102503.72;;;5.91;96.77
80566;BME280;69915;54.862;10.730;2024-01-27T04:24:22;102503.72;;;5.91;97.04
80566;BME280;69915;54.862;10.730;2024-01-27T04:26:48;102512.66;;;5.98;97.13
80566;BME280;69915;54.862;10.730;2024-01-27T04:29:13;102520.38;;;6.01;97.10
80566;BME280;69915;54.862;10.730;2024-01-27T04:31:41;102513.28;;;6.00;97.34
80566;BME280;69915;54.862;10.730;2024-01-27T04:34:07;102524.97;;;6.01;97.25
80566;BME280;69915;54.862;10.730;2024-01-27T04:36:32;102534.56;;;6.03;97.21
80566;BME280;69915;54.862;10.730;2024-01-27T04:38:58;102534.56;;;6.03;97.53
80566;BME280;69915;54.862;10.730;2024-01-27T04:41:23;102552.91;;;6.08;97.06
80566;BME280;69915;54.862;10.730;2024-01-27T04:43:49;102548.97;;;6.04;97.64
80566;BME280;69915;54.862;10.730;2024-01-27T04:46:15;102543.94;;;6.08;96.80
80566;BME280;69915;54.862;10.730;2024-01-27T04:48:41;102535.78;;;6.08;96.69
80566;BME280;69915;54.862;10.730;2024-01-27T04:51:06;102537.88;;;6.06;96.91
80566;BME280;69915;54.862;10.730;2024-01-27T04:53:31;102537.28;;;6.03;96.93
80566;BME280;69915;54.862;10.730;2024-01-27T04:55:57;102548.13;;;6.03;97.02
80566;BME280;69915;54.862;10.730;2024-01-27T04:58:23;102546.69;;;6.01;97.00
80566;BME280;69915;54.862;10.730;2024-01-27T05:00:48;102549.16;;;6.02;97.39
80566;BME280;69915;54.862;10.730;2024-01-27T05:03:14;102543.75;;;6.02;97.26
80566;BME280;69915;54.862;10.730;2024-01-27T05:05:43;102554.56;;;6.09;97.07
80566;BME280;69915;54.862;10.730;2024-01-27T05:08:09;102556.25;;;6.10;97.63
80566;BME280;69915;54.862;10.730;2024-01-27T05:10:35;102558.56;;;6.07;97.74
80566;BME280;69915;54.862;10.730;2024-01-27T05:13:02;102562.06;;;6.14;98.10
80566;BME280;69915;54.862;10.730;2024-01-27T05:15:27;102561.44;;;6.12;98.16
80566;BME280;69915;54.862;10.730;2024-01-27T05:17:53;102563.09;;;6.13;98.02
80566;BME280;69915;54.862;10.730;2024-01-27T05:20:19;102561.19;;;6.20;98.14
80566;BME280;69915;54.862;10.730;2024-01-27T05:22:45;102568.53;;;6.13;98.02
80566;BME280;69915;54.862;10.730;2024-01-27T05:25:11;102563.72;;;6.15;98.18
80566;BME280;69915;54.862;10.730;2024-01-27T05:27:37;102567.50;;;6.14;97.90
80566;BME280;69915;54.862;10.730;2024-01-27T05:30:06;102582.13;;;6.13;98.28
80566;BME280;69915;54.862;10.730;2024-01-27T05:32:32;102580.44;;;6.12;98.11
80566;BME280;69915;54.862;10.730;2024-01-27T05:34:58;102577.56;;;6.07;97.90
80566;BME280;69915;54.862;10.730;2024-01-27T05:37:23;102591.53;;;6.10;97.92
80566;BME280;69915;54.862;10.730;2024-01-27T05:39:49;102583.00;;;6.07;97.89
80566;BME280;69915;54.862;10.730;2024-01-27T05:42:14;102590.31;;;6.06;98.06
80566;BME280;69915;54.862;10.730;2024-01-27T05:44:40;102602.00;;;6.07;97.95
80566;BME280;69915;54.862;10.730;2024-01-27T05:47:06;102590.31;;;6.06;98.25
80566;BME280;69915;54.862;10.730;2024-01-27T05:49:32;102592.63;;;6.02;97.96
80566;BME280;69915;54.862;10.730;2024-01-27T05:51:57;102599.28;;;6.07;98.16
80566;BME280;69915;54.862;10.730;2024-01-27T05:54:24;102595.38;;;5.96;98.72
80566;BME280;69915;54.862;10.730;2024-01-27T05:56:49;102594.75;;;5.94;98.72
80566;BME280;69915;54.862;10.730;2024-01-27T05:59:15;102605.59;;;6.00;98.66
80566;BME280;69915;54.862;10.730;2024-01-27T06:01:40;102604.09;;;6.05;98.84
80566;BME280;69915;54.862;10.730;2024-01-27T06:04:08;102604.53;;;6.01;98.99
80566;BME280;69915;54.862;10.730;2024-01-27T06:06:34;102614.78;;;5.99;98.66
80566;BME280;69915;54.862;10.730;2024-01-27T06:08:59;102630.25;;;5.99;98.87
80566;BME280;69915;54.862;10.730;2024-01-27T06:11:25;102612.75;;;5.88;98.80
80566;BME280;69915;54.862;10.730;2024-01-27T06:13:51;102613.78;;;5.87;99.12
80566;BME280;69915;54.862;10.730;2024-01-27T06:16:20;102611.47;;;5.91;99.08
80566;BME280;69915;54.862;10.730;2024-01-27T06:18:45;102615.88;;;5.92;99.41
80566;BME280;69915;54.862;10.730;2024-01-27T06:21:11;102615.69;;;5.87;99.51
80566;BME280;69915;54.862;10.730;2024-01-27T06:23:37;102624.03;;;5.85;99.84
80566;BME280;69915;54.862;10.730;2024-01-27T06:26:09;102613.19;;;5.85;99.81
80566;BME280;69915;54.862;10.730;2024-01-27T06:28:37;102639.91;;;5.75;99.28
80566;BME280;69915;54.862;10.730;2024-01-27T06:31:04;102645.34;;;5.75;100.00
80566;BME280;69915;54.862;10.730;2024-01-27T06:33:30;102644.91;;;5.78;100.00
80566;BME280;69915;54.862;10.730;2024-01-27T06:35:56;102643.69;;;5.74;100.00
80566;BME280;69915;54.862;10.730;2024-01-27T06:38:21;102645.38;;;5.69;99.80
80566;BME280;69915;54.862;10.730;2024-01-27T06:40:47;102648.28;;;5.67;100.00
80566;BME280;69915;54.862;10.730;2024-01-27T06:43:13;102647.47;;;5.67;100.00
80566;BME280;69915;54.862;10.730;2024-01-27T06:45:39;102657.50;;;5.60;100.00
80566;BME280;69915;54.862;10.730;2024-01-27T06:48:06;102668.75;;;5.63;100.00
80566;BME280;69915;54.862;10.730;2024-01-27T06:50:32;102682.72;;;5.73;100.00
80566;BME280;69915;54.862;10.730;2024-01-27T06:52:58;102685.22;;;5.75;100.00
80566;BME280;69915;54.862;10.730;2024-01-27T06:55:23;102691.47;;;5.75;100.00
80566;BME280;69915;54.862;10.730;2024-01-27T06:57:49;102700.25;;;5.77;100.00
80566;BME280;69915;54.862;10.730;2024-01-27T07:00:14;102699.63;;;5.75;100.00
80566;BME280;69915;54.862;10.730;2024-01-27T07:02:40;102703.41;;;5.68;100.00
80566;BME280;69915;54.862;10.730;2024-01-27T07:05:09;102717.16;;;5.66;100.00
80566;BME280;69915;54.862;10.730;2024-01-27T07:07:35;102695.28;;;5.55;99.83
80566;BME280;69915;54.862;10.730;2024-01-27T07:10:01;102698.66;;;5.50;99.92
80566;BME280;69915;54.862;10.730;2024-01-27T07:12:27;102715.53;;;5.45;100.00
80566;BME280;69915;54.862;10.730;2024-01-27T07:14:53;102712.63;;;5.47;100.00
80566;BME280;69915;54.862;10.730;2024-01-27T07:17:20;102715.53;;;5.45;100.00
80566;BME280;69915;54.862;10.730;2024-01-27T07:19:46;102722.66;;;5.53;100.00
80566;BME280;69915;54.862;10.730;2024-01-27T07:22:12;102718.44;;;5.50;100.00
80566;BME280;69915;54.862;10.730;2024-01-27T07:24:37;102725.97;;;5.55;100.00
80566;BME280;69915;54.862;10.730;2024-01-27T07:27:03;102731.41;;;5.55;100.00
80566;BME280;69915;54.862;10.730;2024-01-27T07:29:29;102745.56;;;5.64;100.00
80566;BME280;69915;54.862;10.730;2024-01-27T07:31:55;102752.88;;;5.63;100.00
80566;BME280;69915;54.862;10.730;2024-01-27T07:34:20;102742.88;;;5.50;100.00
80566;BME280;69915;54.862;10.730;2024-01-27T07:36:46;102756.00;;;5.60;100.00
80566;BME280;69915;54.862;10.730;2024-01-27T07:39:13;102748.50;;;5.56;100.00
80566;BME280;69915;54.862;10.730;2024-01-27T07:41:39;102746.00;;;5.54;100.00
80566;BME280;69915;54.862;10.730;2024-01-27T07:44:12;102750.16;;;5.63;100.00
80566;BME280;69915;54.862;10.730;2024-01-27T07:46:39;102758.94;;;5.65;99.93
80566;BME280;69915;54.862;10.730;2024-01-27T07:49:08;102767.69;;;5.54;99.91
80566;BME280;69915;54.862;10.730;2024-01-27T07:51:34;102769.38;;;5.68;100.00
80566;BME280;69915;54.862;10.730;2024-01-27T07:54:00;102767.69;;;5.74;100.00
80566;BME280;69915;54.862;10.730;2024-01-27T07:56:26;102763.47;;;5.84;100.00
80566;BME280;69915;54.862;10.730;2024-01-27T07:58:52;102767.72;;;5.87;100.00
80566;BME280;69915;54.862;10.730;2024-01-27T08:01:18;102767.25;;;5.96;99.69
80566;BME280;69915;54.862;10.730;2024-01-27T08:03:44;102772.47;;;5.98;99.29
80566;BME280;69915;54.862;10.730;2024-01-27T08:06:18;102779.38;;;5.94;98.60
80566;BME280;69915;54.862;10.730;2024-01-27T08:08:45;102775.63;;;5.95;98.82
80566;BME280;69915;54.862;10.730;2024-01-27T08:11:11;102768.94;;;5.71;99.05
80566;BME280;69915;54.862;10.730;2024-01-27T08:13:37;102784.41;;;5.64;98.92
80566;BME280;69915;54.862;10.730;2024-01-27T08:16:03;102781.06;;;5.69;99.08
80566;BME280;69915;54.862;10.730;2024-01-27T08:18:30;102788.97;;;5.70;99.96
80566;BME280;69915;54.862;10.730;2024-01-27T08:20:56;102785.66;;;5.62;99.39
80566;BME280;69915;54.862;10.730;2024-01-27T08:23:21;102788.13;;;5.76;99.81
80566;BME280;69915;54.862;10.730;2024-01-27T08:25:47;102798.59;;;5.99;100.00
80566;BME280;69915;54.862;10.730;2024-01-27T08:28:17;102797.06;;;6.16;100.00
80566;BME280;69915;54.862;10.730;2024-01-27T08:30:42;102783.91;;;6.20;98.84
80566;BME280;69915;54.862;10.730;2024-01-27T08:33:08;102796.00;;;6.24;98.51
80566;BME280;69915;54.862;10.730;2024-01-27T08:35:33;102792.00;;;6.33;97.77
80566;BME280;69915;54.862;10.730;2024-01-27T08:37:59;102790.72;;;6.42;97.62
80566;BME280;69915;54.862;10.730;2024-01-27T08:40:24;102794.22;;;6.49;97.21
80566;BME280;69915;54.862;10.730;2024-01-27T08:42:50;102792.72;;;6.60;97.47
80566;BME280;69915;54.862;10.730;2024-01-27T08:45:16;102790.63;;;6.62;97.07
80566;BME280;69915;54.862;10.730;2024-01-27T08:47:42;102793.06;;;6.70;96.43
80566;BME280;69915;54.862;10.730;2024-01-27T08:50:08;102795.31;;;6.79;95.94
80566;BME280;69915;54.862;10.730;2024-01-27T08:52:35;102798.47;;;6.76;95.74
80566;BME280;69915;54.862;10.730;2024-01-27T08:55:00;102811.00;;;6.84;95.36
80566;BME280;69915;54.862;10.730;2024-01-27T08:57:26;102807.25;;;7.09;95.24
80566;BME280;69915;54.862;10.730;2024-01-27T08:59:51;102799.66;;;7.25;95.06
80566;BME280;69915;54.862;10.730;2024-01-27T09:02:17;102801.75;;;7.47;94.14
80566;BME280;69915;54.862;10.730;2024-01-27T09:04:42;102801.22;;;7.63;93.34
80566;BME280;69915;54.862;10.730;2024-01-27T09:07:08;102794.03;;;7.69;92.61
80566;BME280;69915;54.862;10.730;2024-01-27T09:09:33;102801.75;;;7.72;91.41
80566;BME280;69915;54.862;10.730;2024-01-27T09:11:59;102798.00;;;7.91;91.28
80566;BME280;69915;54.862;10.730;2024-01-27T09:14:24;102801.88;;;8.02;90.79
80566;BME280;69915;54.862;10.730;2024-01-27T09:16:50;102807.25;;;8.08;90.08
80566;BME280;69915;54.862;10.730;2024-01-27T09:19:17;102796.03;;;7.98;90.05
80566;BME280;69915;54.862;10.730;2024-01-27T09:21:43;102805.13;;;8.10;89.53
80566;BME280;69915;54.862;10.730;2024-01-27T09:24:08;102812.38;;;8.16;88.89
80566;BME280;69915;54.862;10.730;2024-01-27T09:26:34;102796.22;;;8.21;88.39
80566;BME280;69915;54.862;10.730;2024-01-27T09:29:00;102812.75;;;8.02;88.62
80566;BME280;69915;54.862;10.730;2024-01-27T09:31:25;102829.88;;;8.09;89.08
80566;BME280;69915;54.862;10.730;2024-01-27T09:33:53;102835.25;;;8.15;89.13
80566;BME280;69915;54.862;10.730;2024-01-27T09:36:19;102832.81;;;8.07;89.15
80566;BME280;69915;54.862;10.730;2024-01-27T09:38:45;102838.00;;;8.15;88.53
80566;BME280;69915;54.862;10.730;2024-01-27T09:41:12;102831.47;;;8.16;88.70
80566;BME280;69915;54.862;10.730;2024-01-27T09:43:44;102830.25;;;8.12;88.48
80566;BME280;69915;54.862;10.730;2024-01-27T09:46:11;102840.50;;;7.92;88.53
80566;BME280;69915;54.862;10.730;2024-01-27T09:48:37;102852.28;;;8.11;89.04
80566;BME280;69915;54.862;10.730;2024-01-27T09:51:03;102851.16;;;7.76;89.25
80566;BME280;69915;54.862;10.730;2024-01-27T09:53:29;102850.53;;;7.49;90.23
80566;BME280;69915;54.862;10.730;2024-01-27T09:55:59;102853.78;;;7.64;90.65
80566;BME280;69915;54.862;10.730;2024-01-27T09:58:28;102851.66;;;7.66;90.43
80566;BME280;69915;54.862;10.730;2024-01-27T10:00:57;102857.97;;;7.60;90.85
80566;BME280;69915;54.862;10.730;2024-01-27T10:03:24;102856.59;;;7.76;90.47
80566;BME280;69915;54.862;10.730;2024-01-27T10:05:55;102847.97;;;7.54;89.99
80566;BME280;69915;54.862;10.730;2024-01-27T10:08:21;102859.56;;;7.67;90.66
80566;BME280;69915;54.862;10.730;2024-01-27T10:10:47;102848.31;;;7.64;90.86
80566;BME280;69915;54.862;10.730;2024-01-27T10:13:16;102851.69;;;7.59;90.54
80566;BME280;69915;54.862;10.730;2024-01-27T10:15:44;102861.41;;;7.74;91.08
80566;BME280;69915;54.862;10.730;2024-01-27T10:18:10;102850.84;;;7.59;90.89
80566;BME280;69915;54.862;10.730;2024-01-27T10:20:39;102853.63;;;7.52;90.81
80566;BME280;69915;54.862;10.730;2024-01-27T10:23:12;102844.22;;;7.55;91.39
80566;BME280;69915;54.862;10.730;2024-01-27T10:25:39;102848.81;;;7.54;91.25
80566;BME280;69915;54.862;10.730;2024-01-27T10:28:06;102842.63;;;7.41;91.50
80566;BME280;69915;54.862;10.730;2024-01-27T10:30:34;102850.34;;;7.44;91.99
80566;BME280;69915;54.862;10.730;2024-01-27T10:32:59;102856.09;;;7.60;91.62
80566;BME280;69915;54.862;10.730;2024-01-27T10:35:25;102850.16;;;7.45;91.60
80566;BME280;69915;54.862;10.730;2024-01-27T10:37:54;102859.31;;;7.51;91.66
80566;BME280;69915;54.862;10.730;2024-01-27T10:40:21;102863.78;;;7.39;91.77
80566;BME280;69915;54.862;10.730;2024-01-27T10:42:51;102861.06;;;7.39;91.78
80566;BME280;69915;54.862;10.730;2024-01-27T10:45:22;102866.34;;;7.58;91.91
80566;BME280;69915;54.862;10.730;2024-01-27T10:47:49;102867.06;;;7.47;92.17
80566;BME280;69915;54.862;10.730;2024-01-27T10:50:16;102867.50;;;7.76;91.79
80566;BME280;69915;54.862;10.730;2024-01-27T10:52:42;102865.03;;;7.92;91.27
80566;BME280;69915;54.862;10.730;2024-01-27T10:55:10;102860.41;;;7.93;90.81
80566;BME280;69915;54.862;10.730;2024-01-27T10:57:37;102863.53;;;7.96;90.27
80566;BME280;69915;54.862;10.730;2024-01-27T11:00:05;102872.94;;;8.00;89.81
80566;BME280;69915;54.862;10.730;2024-01-27T11:02:33;102879.88;;;7.72;89.75
80566;BME280;69915;54.862;10.730;2024-01-27T11:05:03;102864.28;;;7.85;90.05
80566;BME280;69915;54.862;10.730;2024-01-27T11:07:33;102867.44;;;7.82;90.11
80566;BME280;69915;54.862;10.730;2024-01-27T11:10:00;102881.81;;;7.89;89.97
80566;BME280;69915;54.862;10.730;2024-01-27T11:12:26;102868.97;;;7.96;90.41
80566;BME280;69915;54.862;10.730;2024-01-27T11:14:52;102865.22;;;7.97;89.48
80566;BME280;69915;54.862;10.730;2024-01-27T11:17:19;102869.09;;;7.83;89.39
80566;BME280;69915;54.862;10.730;2024-01-27T11:19:45;102875.59;;;8.07;89.68
80566;BME280;69915;54.862;10.730;2024-01-27T11:22:28;102877.59;;;7.93;89.78
80566;BME280;69915;54.862;10.730;2024-01-27T11:27:38;102878.97;;;8.02;89.33
80566;BME280;69915;54.862;10.730;2024-01-27T11:30:05;102897.56;;;7.87;89.68
80566;BME280;69915;54.862;10.730;2024-01-27T11:32:30;102891.56;;;8.03;89.47
80566;BME280;69915;54.862;10.730;2024-01-27T11:34:56;102902.50;;;7.97;89.40
80566;BME280;69915;54.862;10.730;2024-01-27T11:37:22;102907.06;;;8.03;89.30
80566;BME280;69915;54.862;10.730;2024-01-27T11:39:51;102906.56;;;8.12;89.62
80566;BME280;69915;54.862;10.730;2024-01-27T11:42:17;102904.81;;;8.18;89.04
80566;BME280;69915;54.862;10.730;2024-01-27T11:44:43;102904.44;;;8.14;88.85
80566;BME280;69915;54.862;10.730;2024-01-27T11:47:19;102903.97;;;8.17;88.86
80566;BME280;69915;54.862;10.730;2024-01-27T11:49:55;102897.88;;;8.22;88.71
80566;BME280;69915;54.862;10.730;2024-01-27T11:52:22;102895.41;;;8.39;88.60
80566;BME280;69915;54.862;10.730;2024-01-27T11:54:59;102903.75;;;8.44;88.41
80566;BME280;69915;54.862;10.730;2024-01-27T11:57:25;102896.41;;;8.44;88.00
80566;BME280;69915;54.862;10.730;2024-01-27T11:59:51;102899.91;;;8.27;87.68
80566;BME280;69915;54.862;10.730;2024-01-27T12:02:18;102903.13;;;8.17;87.96
80566;BME280;69915;54.862;10.730;2024-01-27T12:04:43;102900.59;;;8.22;88.29
80566;BME280;69915;54.862;10.730;2024-01-27T12:07:09;102916.91;;;8.29;88.46
80566;BME280;69915;54.862;10.730;2024-01-27T12:09:38;102915.03;;;8.22;88.36
80566;BME280;69915;54.862;10.730;2024-01-27T12:12:04;102919.56;;;8.35;88.85
80566;BME280;69915;54.862;10.730;2024-01-27T12:14:47;102913.44;;;8.40;88.48
80566;BME280;69915;54.862;10.730;2024-01-27T12:17:13;102914.66;;;8.44;88.45
80566;BME280;69915;54.862;10.730;2024-01-27T12:19:39;102913.44;;;8.40;88.65
80566;BME280;69915;54.862;10.730;2024-01-27T12:22:05;102912.47;;;8.52;88.38
80566;BME280;69915;54.862;10.730;2024-01-27T12:24:45;102906.94;;;8.59;88.01
80566;BME280;69915;54.862;10.730;2024-01-27T12:27:11;102899.28;;;8.49;87.61
80566;BME280;69915;54.862;10.730;2024-01-27T12:29:36;102888.53;;;8.36;87.66
80566;BME280;69915;54.862;10.730;2024-01-27T12:32:02;102895.94;;;8.29;88.37
80566;BME280;69915;54.862;10.730;2024-01-27T12:34:28;102896.34;;;8.26;88.49
80566;BME280;69915;54.862;10.730;2024-01-27T12:36:55;102897.75;;;8.10;88.51
80566;BME280;69915;54.862;10.730;2024-01-27T12:39:21;102907.00;;;8.09;88.97
80566;BME280;69915;54.862;10.730;2024-01-27T12:41:46;102895.03;;;8.10;89.44
80566;BME280;69915;54.862;10.730;2024-01-27T12:44:12;102907.75;;;8.16;89.39
80566;BME280;69915;54.862;10.730;2024-01-27T12:46:37;102893.63;;;8.26;89.24
80566;BME280;69915;54.862;10.730;2024-01-27T12:49:04;102889.38;;;8.37;89.20